Decoded Metar for LFRG (DEAUVILLE in FRANCE) (IATA:DOL) | Meteo·Mobile Aviation Weather
aviador You're here:

LFRG Decoded Metar

DEAUVILLE in FRANCE
Report Time2019-09-21 08:30:00
UTC Time2019-09-21 08:47:59
Flight Rules vfr VFR
Wind130° at 06 kt
W.Decomp.*RWY 12: 5.9 kt HW 1.1 kt RCW
Visibility9999 m
Phenomena:N/A
Clouds:N/A
Expected CloudBase > 4,000 ft AGL from Temp-Dew spread
CeilingNone
Temp17°C (ISA +3)
Dew Point07°C (52% RH)
AAT14.2°C
QNH1013 hPa
Density Alt965 ft
Elevation479 ft
Report Wrong Elevation
Raw Report
LFRG 210830Z AUTO 13006KT 040V190 CAVOK 17/07 Q1013 NOSIG=

Extra information for LFRG:More info

Metar Taf Metar & Taf Last 4 Metars F.Rules Stats Wind Profile Meteogram Temp Stats Airport Information Weather charts Add Link Nearby VenuesMetar ALERT Operation Metar Decoded Social comments